Melbourne International Airport
YMML : now visible

Airfield :











YOU CAN JOIN US ON...

 
LOGIN :

Register | Disclaimer

   EN    FR    IT 

 









Legend :    VFR   Marginal VFR   IFR   Intensive IFR   Very Intensive IFR
Visi :
Ceiling :
>= 8 km
>= 3000ft
5 to 8 km
1000 to 3000 ft
1500m to 5 km
500 to 1000 ft
800 to 1500m
200 to 500 ft
< 800m
< 200 ft
Symbols :   Thunderstorms  Fog  Heavy snow  Heavy precipitations  Wind > 20 kt






- Airport Elevation : 434 ft
- IATA code : MEL


YMML - Melbourne International

CURRENT METAR :
  • 172100Z 18010KT 9999 BKN033 17/10 Q1016

EXPIRED METARs :
  • 172030Z 18009KT 9999 BKN031 17/10 Q1016
  • 172000Z 17009KT 9999 OVC031 17/10 Q1015
  • 171930Z 18011KT 9999 OVC030 16/10 Q1015
  • 171900Z 19007KT 9999 OVC035 16/11 Q1015
  • 171830Z 20008KT 9999 OVC036 16/10 Q1015

TAF TAF YMML
Valid from the 17 at 21:00 until the 19 at 00:00 UTC


171958Z 1721/1900 17010KT 9999 BKN025
FM180000 18013KT 9999 BKN035
FM180300 18016G26KT 9999 SCT040
FM181000 17012KT 9999 SCT025 BKN030
FM181500 16008KT 9999 FEW020
FM182300 14014KT CAVOK
YMMM FIR / Oceania



MET'MAP, your aeronautical weather chart ! - Copyright ORBIFLY December 2007 - Disclaimer

ORBIFLY MET'MAP TEAM :

Programming & Development : Alexandra Zaïnal
Concept & original design : Baudouin d'Aumeries
Assistance for programming : Marc-Olivier Méhu
Technical & hardware support : Manuel Goepfert

Contact : metmap@orbifly.com




SOURCES & CREDITS :

   NOAA       Earth
Advisory